createdAt,value
2022-10-02T00:00:08.015Z,2.00
2022-10-02T00:01:07.828Z,2.00
2022-10-02T00:02:07.775Z,1.70
2022-10-02T00:03:07.751Z,1.90
2022-10-02T00:04:07.801Z,1.80
2022-10-02T00:05:07.728Z,1.90
2022-10-02T00:06:07.884Z,1.90
2022-10-02T00:07:07.716Z,1.80
2022-10-02T00:08:07.699Z,1.90
2022-10-02T00:09:07.684Z,2.10
2022-10-02T00:10:07.664Z,1.80
2022-10-02T00:11:07.669Z,2.10
2022-10-02T00:12:08.008Z,2.10
2022-10-02T00:13:07.636Z,1.80
2022-10-02T00:14:07.623Z,2.00
2022-10-02T00:15:07.617Z,2.30
2022-10-02T00:16:07.645Z,1.80
2022-10-02T00:17:07.617Z,1.60
2022-10-02T00:18:07.903Z,2.30
2022-10-02T00:19:07.573Z,1.80
2022-10-02T00:20:07.564Z,2.00
2022-10-02T00:21:07.551Z,1.80
2022-10-02T00:22:07.538Z,2.30
2022-10-02T00:23:07.547Z,2.00
2022-10-02T00:24:07.843Z,2.00
2022-10-02T00:25:07.517Z,2.00
2022-10-02T00:26:07.500Z,2.50
2022-10-02T00:27:07.487Z,2.10
2022-10-02T00:28:07.547Z,1.70
2022-10-02T00:29:07.463Z,2.10
2022-10-02T00:30:07.781Z,2.00
2022-10-02T00:31:07.443Z,2.20
2022-10-02T00:32:07.468Z,1.70
2022-10-02T00:33:07.429Z,2.40
2022-10-02T00:34:08.625Z,2.10
2022-10-02T00:35:07.409Z,2.20
2022-10-02T00:36:07.587Z,2.30
2022-10-02T00:37:07.398Z,1.80
2022-10-02T00:38:07.370Z,2.10
2022-10-02T00:39:07.357Z,1.90
2022-10-02T00:40:07.355Z,2.40
2022-10-02T00:41:07.344Z,2.00
2022-10-02T00:42:07.496Z,2.30
2022-10-02T00:43:07.332Z,2.30
2022-10-02T00:44:07.301Z,2.20
2022-10-02T00:45:07.315Z,2.40
2022-10-02T00:46:07.372Z,2.10
2022-10-02T00:47:07.318Z,2.20
2022-10-02T00:48:07.611Z,1.80
2022-10-02T00:49:07.269Z,2.30
2022-10-02T00:50:07.236Z,1.90
2022-10-02T00:51:07.223Z,1.90
2022-10-02T00:52:07.222Z,2.00
2022-10-02T00:53:07.207Z,2.20
2022-10-02T00:54:07.894Z,1.70
2022-10-02T00:55:07.183Z,2.00
2022-10-02T00:56:07.175Z,1.40
2022-10-02T00:57:07.167Z,1.90
2022-10-02T00:58:07.154Z,2.30
2022-10-02T00:59:07.143Z,2.30
2022-10-02T01:00:07.351Z,2.00
2022-10-02T01:01:07.173Z,1.70
2022-10-02T01:02:07.144Z,1.90
2022-10-02T01:03:07.091Z,2.60
2022-10-02T01:04:07.083Z,1.50
2022-10-02T01:05:07.078Z,2.10
2022-10-02T01:06:07.284Z,2.10
2022-10-02T01:07:07.061Z,1.90
2022-10-02T01:08:07.050Z,2.30
2022-10-02T01:09:07.381Z,2.30
2022-10-02T01:10:07.021Z,2.00
2022-10-02T01:11:07.172Z,2.20
2022-10-02T01:12:07.269Z,2.20
2022-10-02T01:13:06.998Z,2.30
2022-10-02T01:14:06.984Z,1.70
2022-10-02T01:15:06.970Z,1.90
2022-10-02T01:16:06.986Z,2.10
2022-10-02T01:17:06.947Z,1.90
2022-10-02T01:18:07.088Z,1.80
2022-10-02T01:19:06.925Z,1.80
2022-10-02T01:20:06.916Z,2.00
2022-10-02T01:21:06.901Z,2.40
2022-10-02T01:22:06.893Z,1.80
2022-10-02T01:23:06.889Z,2.20
2022-10-02T01:24:07.067Z,1.90
2022-10-02T01:25:06.862Z,2.30
2022-10-02T01:26:06.853Z,1.80
2022-10-02T01:27:06.849Z,2.00
2022-10-02T01:28:06.853Z,1.80
2022-10-02T01:29:06.825Z,2.10
2022-10-02T01:30:06.971Z,2.20
2022-10-02T01:31:06.801Z,2.00
2022-10-02T01:32:06.785Z,2.00
2022-10-02T01:33:06.776Z,2.10
2022-10-02T01:34:06.762Z,2.10
2022-10-02T01:35:06.760Z,2.00
2022-10-02T01:36:06.901Z,2.00
2022-10-02T01:37:06.757Z,1.90
2022-10-02T01:38:06.711Z,2.10
2022-10-02T01:39:06.705Z,2.20
2022-10-02T01:40:06.706Z,2.10
2022-10-02T01:41:06.689Z,2.10
2022-10-02T01:42:06.838Z,1.90
2022-10-02T01:43:06.669Z,2.10
2022-10-02T01:44:06.665Z,2.00
2022-10-02T01:45:06.647Z,1.90
2022-10-02T01:46:06.682Z,2.00
2022-10-02T01:47:06.626Z,1.90
2022-10-02T01:48:06.783Z,1.90
2022-10-02T01:49:06.610Z,1.90
2022-10-02T01:50:06.660Z,1.70
2022-10-02T01:51:06.590Z,2.40
2022-10-02T01:52:06.572Z,2.20
2022-10-02T01:53:06.566Z,1.80
2022-10-02T01:54:06.705Z,1.90
2022-10-02T01:55:06.542Z,1.70
2022-10-02T01:56:06.521Z,1.90
2022-10-02T01:57:06.509Z,2.10
2022-10-02T01:58:06.504Z,2.10
2022-10-02T01:59:06.504Z,2.20
2022-10-02T02:00:06.660Z,2.10
2022-10-02T02:01:06.507Z,2.40
2022-10-02T02:02:06.581Z,2.00
2022-10-02T02:03:06.455Z,2.00
2022-10-02T02:04:06.922Z,2.20
2022-10-02T02:05:06.434Z,1.90
2022-10-02T02:06:06.420Z,2.20
2022-10-02T02:07:06.416Z,2.10
2022-10-02T02:08:06.401Z,1.80
2022-10-02T02:09:06.392Z,2.40
2022-10-02T02:10:06.541Z,2.10
2022-10-02T02:11:06.364Z,2.10
2022-10-02T02:12:06.350Z,2.10
2022-10-02T02:13:06.352Z,2.30
2022-10-02T02:14:06.329Z,2.50
2022-10-02T02:15:06.326Z,2.00
2022-10-02T02:16:06.509Z,2.20
2022-10-02T02:17:06.307Z,1.90
2022-10-02T02:18:06.290Z,1.80
2022-10-02T02:19:06.307Z,1.60
2022-10-02T02:20:06.267Z,1.70
2022-10-02T02:21:06.265Z,1.90
2022-10-02T02:22:06.400Z,2.20
2022-10-02T02:23:06.230Z,2.20
2022-10-02T02:24:06.229Z,2.20
2022-10-02T02:25:06.223Z,2.00
2022-10-02T02:26:06.202Z,2.10
2022-10-02T02:27:06.190Z,2.10
2022-10-02T02:28:06.369Z,1.90
2022-10-02T02:29:06.178Z,1.90
2022-10-02T02:30:06.167Z,2.10
2022-10-02T02:31:13.698Z,1.90
2022-10-02T02:32:06.130Z,2.50
2022-10-02T02:33:06.128Z,1.70
2022-10-02T02:34:06.261Z,1.80
2022-10-02T02:35:06.105Z,2.10
2022-10-02T02:36:06.103Z,2.20
2022-10-02T02:37:06.083Z,2.20
2022-10-02T02:38:06.079Z,2.20
2022-10-02T02:39:06.219Z,1.80
2022-10-02T02:40:06.067Z,2.00
2022-10-02T02:41:06.045Z,2.10
2022-10-02T02:42:06.032Z,2.10
2022-10-02T02:43:06.020Z,2.20
2022-10-02T02:44:15.760Z,2.20
2022-10-02T02:45:06.066Z,1.80
2022-10-02T02:46:06.075Z,2.10
2022-10-02T02:47:06.009Z,2.00
2022-10-02T02:48:05.985Z,2.30
2022-10-02T02:49:05.974Z,1.90
2022-10-02T02:50:06.240Z,2.40
2022-10-02T02:51:06.039Z,2.20
2022-10-02T02:52:06.015Z,2.00
2022-10-02T02:53:05.953Z,2.00
2022-10-02T02:54:05.956Z,2.10
2022-10-02T02:55:05.922Z,1.80
2022-10-02T02:56:06.336Z,1.80
2022-10-02T02:57:05.903Z,1.80
2022-10-02T02:58:05.875Z,2.20
2022-10-02T02:59:05.895Z,1.90
2022-10-02T03:00:05.842Z,2.30
2022-10-02T03:01:05.984Z,1.80
2022-10-02T03:02:06.270Z,1.90
2022-10-02T03:03:05.857Z,2.30
2022-10-02T03:04:05.834Z,2.40
2022-10-02T03:05:05.845Z,1.90
2022-10-02T03:06:05.856Z,2.10
2022-10-02T03:07:05.791Z,2.30
2022-10-02T03:08:06.005Z,1.90
2022-10-02T03:09:05.805Z,1.90
2022-10-02T03:10:05.786Z,2.10
2022-10-02T03:11:05.777Z,2.20
2022-10-02T03:12:05.746Z,1.90
2022-10-02T03:13:05.725Z,2.10
2022-10-02T03:14:06.169Z,1.70
2022-10-02T03:15:05.731Z,1.90
2022-10-02T03:16:05.833Z,2.20
2022-10-02T03:17:05.710Z,2.10
2022-10-02T03:18:05.655Z,1.70
2022-10-02T03:19:05.667Z,2.20
2022-10-02T03:20:13.529Z,2.10
2022-10-02T03:21:05.642Z,1.90
2022-10-02T03:22:05.675Z,2.10
2022-10-02T03:23:05.877Z,2.70
2022-10-02T03:24:05.602Z,1.90
2022-10-02T03:25:05.595Z,2.00
2022-10-02T03:26:06.510Z,1.90
2022-10-02T03:27:05.620Z,2.50
2022-10-02T03:28:05.681Z,1.80
2022-10-02T03:29:05.626Z,2.20
2022-10-02T03:30:05.589Z,2.20
2022-10-02T03:31:05.571Z,2.40
2022-10-02T03:32:05.741Z,2.20
2022-10-02T03:33:05.521Z,2.10
2022-10-02T03:34:05.476Z,2.50
2022-10-02T03:35:05.854Z,1.80
2022-10-02T03:36:05.454Z,2.30
2022-10-02T03:37:05.445Z,2.20
2022-10-02T03:38:05.440Z,2.00
2022-10-02T03:39:25.093Z,2.10
2022-10-02T03:40:07.111Z,2.40
2022-10-02T03:41:05.411Z,1.80
2022-10-02T03:42:05.391Z,1.60
2022-10-02T03:43:05.371Z,1.70
2022-10-02T03:44:05.358Z,2.10
2022-10-02T03:45:05.359Z,2.10
2022-10-02T03:46:05.625Z,2.30
2022-10-02T03:47:05.330Z,2.10
2022-10-02T03:48:05.322Z,2.30
2022-10-02T03:49:05.310Z,2.20
2022-10-02T03:50:05.296Z,2.20
2022-10-02T03:51:05.285Z,2.20
2022-10-02T03:52:05.430Z,2.30
2022-10-02T03:53:05.260Z,1.90
2022-10-02T03:54:05.249Z,2.30
2022-10-02T03:55:05.260Z,2.20
2022-10-02T03:56:05.230Z,2.10
2022-10-02T03:57:05.231Z,1.80
2022-10-02T03:58:05.378Z,2.00
2022-10-02T03:59:05.198Z,2.30
2022-10-02T04:00:05.192Z,2.10
2022-10-02T04:01:05.179Z,2.40
2022-10-02T04:02:05.224Z,2.40
2022-10-02T04:03:05.177Z,2.10
2022-10-02T04:04:05.365Z,1.90
2022-10-02T04:05:05.154Z,2.40
2022-10-02T04:06:05.129Z,2.10
2022-10-02T04:07:05.129Z,2.20
2022-10-02T04:08:05.099Z,1.80
2022-10-02T04:09:05.098Z,2.10
2022-10-02T04:10:05.432Z,2.50
2022-10-02T04:11:05.069Z,2.30
2022-10-02T04:12:05.069Z,2.20
2022-10-02T04:13:05.061Z,2.00
2022-10-02T04:14:05.045Z,2.10
2022-10-02T04:15:05.025Z,2.40
2022-10-02T04:16:05.234Z,2.40
2022-10-02T04:17:05.033Z,2.30
2022-10-02T04:18:04.990Z,1.80
2022-10-02T04:19:04.988Z,2.60
2022-10-02T04:20:04.976Z,2.20
2022-10-02T04:21:04.965Z,2.20
2022-10-02T04:22:05.306Z,1.70
2022-10-02T04:23:04.944Z,1.80
2022-10-02T04:24:04.929Z,1.80
2022-10-02T04:25:04.926Z,2.20
2022-10-02T04:26:04.909Z,2.00
2022-10-02T04:27:04.898Z,2.00
2022-10-02T04:28:05.142Z,2.40
2022-10-02T04:29:04.880Z,2.20
2022-10-02T04:30:04.871Z,2.00
2022-10-02T04:31:04.863Z,2.10
2022-10-02T04:32:04.842Z,2.40
2022-10-02T04:33:04.830Z,2.30
2022-10-02T04:34:04.979Z,2.60
2022-10-02T04:35:04.839Z,2.30
2022-10-02T04:36:04.803Z,3.00
2022-10-02T04:37:04.790Z,2.20
2022-10-02T04:38:04.794Z,2.80
2022-10-02T04:39:04.788Z,2.20
2022-10-02T04:40:04.910Z,2.50
2022-10-02T04:41:04.750Z,2.60
2022-10-02T04:42:04.734Z,2.30
2022-10-02T04:43:04.724Z,2.80
2022-10-02T04:44:04.717Z,2.80
2022-10-02T04:45:04.703Z,2.60
2022-10-02T04:46:04.997Z,2.30
2022-10-02T04:47:04.684Z,2.80
2022-10-02T04:48:04.668Z,2.70
2022-10-02T04:49:04.658Z,2.30
2022-10-02T04:50:04.664Z,2.30
2022-10-02T04:51:04.643Z,2.60
2022-10-02T04:52:04.788Z,2.50
2022-10-02T04:53:04.618Z,2.20
2022-10-02T04:54:04.609Z,2.60
2022-10-02T04:55:04.598Z,2.30
2022-10-02T04:56:12.087Z,2.70
2022-10-02T04:57:13.278Z,2.10
2022-10-02T04:58:12.084Z,2.60
2022-10-02T04:59:12.044Z,1.80
2022-10-02T05:00:12.072Z,2.40
2022-10-02T05:01:12.077Z,2.20
2022-10-02T05:02:12.068Z,2.40
2022-10-02T05:03:13.221Z,2.40
2022-10-02T05:04:12.025Z,2.10
2022-10-02T05:05:11.999Z,2.50
2022-10-02T05:06:11.997Z,2.30
2022-10-02T05:07:12.007Z,2.90
2022-10-02T05:08:04.457Z,1.90
2022-10-02T05:09:04.598Z,2.50
2022-10-02T05:10:04.457Z,2.20
2022-10-02T05:11:04.461Z,2.40
2022-10-02T05:12:04.418Z,2.60
2022-10-02T05:13:04.396Z,2.30
2022-10-02T05:14:04.405Z,2.30
2022-10-02T05:15:04.718Z,2.60
2022-10-02T05:16:04.436Z,2.50
2022-10-02T05:17:04.356Z,2.30
2022-10-02T05:18:05.317Z,2.70
2022-10-02T05:19:04.339Z,2.30
2022-10-02T05:20:04.328Z,2.10
2022-10-02T05:21:04.491Z,2.40
2022-10-02T05:22:04.314Z,2.60
2022-10-02T05:23:04.309Z,2.50
2022-10-02T05:24:04.286Z,2.40
2022-10-02T05:25:04.284Z,2.50
2022-10-02T05:26:04.265Z,2.10
2022-10-02T05:27:04.433Z,2.50
2022-10-02T05:28:04.273Z,2.10
2022-10-02T05:29:04.247Z,2.30
2022-10-02T05:30:04.227Z,2.90
2022-10-02T05:31:04.389Z,2.40
2022-10-02T05:32:04.245Z,2.60
2022-10-02T05:33:04.406Z,2.30
2022-10-02T05:34:04.217Z,2.40
2022-10-02T05:35:04.166Z,2.60
2022-10-02T05:36:04.160Z,2.40
2022-10-02T05:37:04.151Z,2.40
2022-10-02T05:38:04.319Z,2.60
2022-10-02T05:39:04.137Z,2.30
2022-10-02T05:40:04.131Z,2.40
2022-10-02T05:41:04.108Z,2.50
2022-10-02T05:42:04.103Z,2.80
2022-10-02T05:43:04.247Z,2.30
2022-10-02T05:44:04.075Z,2.60
2022-10-02T05:45:04.064Z,3.20
2022-10-02T05:46:04.054Z,2.70
2022-10-02T05:47:04.078Z,2.60
2022-10-02T05:48:04.195Z,3.30
2022-10-02T05:49:04.025Z,2.70
2022-10-02T05:50:04.005Z,3.40
2022-10-02T05:51:04.007Z,2.90
2022-10-02T05:52:03.993Z,3.30
2022-10-02T05:53:04.310Z,2.90
2022-10-02T05:54:03.985Z,2.70
2022-10-02T05:55:03.976Z,3.30
2022-10-02T05:56:03.955Z,2.90
2022-10-02T05:57:03.937Z,2.90
2022-10-02T05:58:03.930Z,2.90
2022-10-02T05:59:04.123Z,2.70
2022-10-02T06:00:03.914Z,3.20
2022-10-02T06:01:03.922Z,3.10
2022-10-02T06:02:03.952Z,3.30
2022-10-02T06:03:03.906Z,3.10
2022-10-02T06:04:04.486Z,3.50
2022-10-02T06:05:03.839Z,3.80
2022-10-02T06:06:03.833Z,4.10
2022-10-02T06:07:03.835Z,3.80
2022-10-02T06:08:03.815Z,4.40
2022-10-02T06:09:03.965Z,3.80
2022-10-02T06:10:03.795Z,3.70
2022-10-02T06:11:03.795Z,4.10
2022-10-02T06:12:03.770Z,3.50
2022-10-02T06:13:03.799Z,3.80
2022-10-02T06:14:03.906Z,3.80
2022-10-02T06:15:03.733Z,3.60
2022-10-02T06:16:03.791Z,3.60
2022-10-02T06:17:03.731Z,3.70
2022-10-02T06:18:03.718Z,3.60
2022-10-02T06:19:03.854Z,3.80
2022-10-02T06:20:04.207Z,3.80
2022-10-02T06:21:03.685Z,3.20
2022-10-02T06:22:03.659Z,3.70
2022-10-02T06:23:03.794Z,3.60
2022-10-02T06:24:03.885Z,3.10
2022-10-02T06:25:03.657Z,3.70
2022-10-02T06:26:03.658Z,3.70
2022-10-02T06:27:03.614Z,3.30
2022-10-02T06:28:03.753Z,3.20
2022-10-02T06:29:03.710Z,3.10
2022-10-02T06:30:03.826Z,3.50
2022-10-02T06:31:03.776Z,2.90
2022-10-02T06:32:03.594Z,3.00
2022-10-02T06:33:03.577Z,3.20
2022-10-02T06:34:03.539Z,2.80
2022-10-02T06:35:03.572Z,3.00
2022-10-02T06:36:03.535Z,2.80
2022-10-02T06:37:03.534Z,3.00
2022-10-02T06:38:03.521Z,3.30
2022-10-02T06:39:03.495Z,2.40
2022-10-02T06:40:03.664Z,2.80
2022-10-02T06:41:03.445Z,3.10
2022-10-02T06:42:03.445Z,2.70
2022-10-02T06:43:03.444Z,2.50
2022-10-02T06:44:03.430Z,3.00
2022-10-02T06:45:03.412Z,2.90
2022-10-02T06:46:03.698Z,2.80
2022-10-02T06:47:03.394Z,2.40
2022-10-02T06:48:03.380Z,2.60
2022-10-02T06:49:03.390Z,2.60
2022-10-02T06:50:03.378Z,3.20
2022-10-02T06:51:03.499Z,2.30
2022-10-02T06:52:03.335Z,2.50
2022-10-02T06:53:03.330Z,2.60
2022-10-02T06:54:03.325Z,2.50
2022-10-02T06:55:03.315Z,2.40
2022-10-02T06:56:03.515Z,2.60
2022-10-02T06:57:03.299Z,2.40
2022-10-02T06:58:03.283Z,2.50
2022-10-02T06:59:03.269Z,2.80
2022-10-02T07:00:03.261Z,2.90
2022-10-02T07:01:03.309Z,2.90
2022-10-02T07:02:03.427Z,3.40
2022-10-02T07:03:03.232Z,2.90
2022-10-02T07:04:03.208Z,3.30
2022-10-02T07:05:03.217Z,3.20
2022-10-02T07:06:03.217Z,3.20
2022-10-02T07:07:03.415Z,3.50
2022-10-02T07:08:03.176Z,2.90
2022-10-02T07:09:03.157Z,3.10
2022-10-02T07:10:03.147Z,2.90
2022-10-02T07:11:03.146Z,2.90
2022-10-02T07:12:03.128Z,2.50
2022-10-02T07:13:03.277Z,3.60
2022-10-02T07:14:03.105Z,3.10
2022-10-02T07:15:03.088Z,3.10
2022-10-02T07:16:03.150Z,2.50
2022-10-02T07:17:03.077Z,2.80
2022-10-02T07:18:03.318Z,2.40
2022-10-02T07:19:03.067Z,4.30
2022-10-02T07:20:03.039Z,4.50
2022-10-02T07:21:03.063Z,6.00
2022-10-02T07:22:15.185Z,5.90
2022-10-02T07:23:07.489Z,8.80
2022-10-02T07:24:03.005Z,7.10
2022-10-02T07:25:02.987Z,5.90
2022-10-02T07:26:02.977Z,5.30
2022-10-02T07:27:02.968Z,4.70
2022-10-02T07:28:02.995Z,4.90
2022-10-02T07:29:03.131Z,4.70
2022-10-02T07:30:02.937Z,3.00
2022-10-02T07:31:02.926Z,2.60
2022-10-02T07:32:02.933Z,2.90
2022-10-02T07:33:02.894Z,2.70
2022-10-02T07:34:02.890Z,3.00
2022-10-02T07:35:03.061Z,2.70
2022-10-02T07:36:02.888Z,2.70
2022-10-02T07:37:02.859Z,2.40
2022-10-02T07:38:02.842Z,2.10
2022-10-02T07:39:02.836Z,2.10
2022-10-02T07:40:02.835Z,2.30
2022-10-02T07:41:02.967Z,2.00
2022-10-02T07:42:02.805Z,2.20
2022-10-02T07:43:02.786Z,2.30
2022-10-02T07:44:02.786Z,2.40
2022-10-02T07:45:02.782Z,2.20
2022-10-02T07:46:03.024Z,2.00
2022-10-02T07:47:02.757Z,1.80
2022-10-02T07:48:02.737Z,1.90
2022-10-02T07:49:02.733Z,1.90
2022-10-02T07:50:02.749Z,1.90
2022-10-02T07:51:02.944Z,2.30
2022-10-02T07:52:02.728Z,2.30
2022-10-02T07:53:02.676Z,2.30
2022-10-02T07:54:02.698Z,1.90
2022-10-02T07:55:02.669Z,1.90
2022-10-02T07:56:02.656Z,2.20
2022-10-02T07:57:06.347Z,2.20
2022-10-02T07:58:03.637Z,2.00
2022-10-02T07:59:02.619Z,1.90
2022-10-02T08:00:02.633Z,1.80
2022-10-02T08:01:02.605Z,2.00
2022-10-02T08:02:02.793Z,2.00
2022-10-02T08:03:02.633Z,2.10
2022-10-02T08:04:02.586Z,1.70
2022-10-02T08:05:02.567Z,2.10
2022-10-02T08:06:02.615Z,1.80
2022-10-02T08:07:02.715Z,2.10
2022-10-02T08:08:02.529Z,1.90
2022-10-02T08:09:02.552Z,2.20
2022-10-02T08:10:02.496Z,1.80
2022-10-02T08:11:02.497Z,2.10
2022-10-02T08:12:02.650Z,2.10
2022-10-02T08:13:02.476Z,2.30
2022-10-02T08:14:02.467Z,2.20
2022-10-02T08:15:02.458Z,2.20
2022-10-02T08:16:02.505Z,1.70
2022-10-02T08:17:02.657Z,2.20
2022-10-02T08:18:22.862Z,1.50
2022-10-02T08:19:03.415Z,2.00
2022-10-02T08:20:02.437Z,2.00
2022-10-02T08:21:02.386Z,1.70
2022-10-02T08:22:02.366Z,2.20
2022-10-02T08:23:02.542Z,2.20
2022-10-02T08:24:02.358Z,1.80
2022-10-02T08:25:02.347Z,1.60
2022-10-02T08:26:02.358Z,1.80
2022-10-02T08:27:02.338Z,2.00
2022-10-02T08:28:02.498Z,2.00
2022-10-02T08:29:02.304Z,2.50
2022-10-02T08:30:02.289Z,2.40
2022-10-02T08:31:02.288Z,2.60
2022-10-02T08:32:02.347Z,2.60
2022-10-02T08:33:02.413Z,2.90
2022-10-02T08:34:02.237Z,2.80
2022-10-02T08:35:02.240Z,2.40
2022-10-02T08:36:02.222Z,2.70
2022-10-02T08:37:02.218Z,1.80
2022-10-02T08:38:02.363Z,2.00
2022-10-02T08:39:02.195Z,2.10
2022-10-02T08:40:02.189Z,2.20
2022-10-02T08:41:02.166Z,2.00
2022-10-02T08:42:02.159Z,2.10
2022-10-02T08:43:02.450Z,2.70
2022-10-02T08:44:02.134Z,2.10
2022-10-02T08:45:02.133Z,2.20
2022-10-02T08:46:02.154Z,2.10
2022-10-02T08:47:02.105Z,2.80
2022-10-02T08:48:02.173Z,2.20
2022-10-02T08:49:02.256Z,2.50
2022-10-02T08:50:02.089Z,2.40
2022-10-02T08:51:02.114Z,2.60
2022-10-02T08:52:02.059Z,2.40
2022-10-02T08:53:02.040Z,2.50
2022-10-02T08:54:02.047Z,2.10
2022-10-02T08:55:02.297Z,2.40
2022-10-02T08:56:02.023Z,2.90
2022-10-02T08:57:01.996Z,2.50
2022-10-02T08:58:01.999Z,2.70
2022-10-02T08:59:01.976Z,3.10
2022-10-02T09:00:02.003Z,3.00
2022-10-02T09:01:02.206Z,3.10
2022-10-02T09:02:02.005Z,2.60
2022-10-02T09:03:01.936Z,3.20
2022-10-02T09:04:01.920Z,3.20
2022-10-02T09:05:01.926Z,2.80
2022-10-02T09:06:01.908Z,2.60
2022-10-02T09:07:02.146Z,3.20
2022-10-02T09:08:01.878Z,2.80
2022-10-02T09:09:01.877Z,2.90
2022-10-02T09:10:01.886Z,2.70
2022-10-02T09:11:01.841Z,3.10
2022-10-02T09:12:11.549Z,3.30
2022-10-02T09:13:09.340Z,2.80
2022-10-02T09:14:09.347Z,3.30
2022-10-02T09:15:09.326Z,3.40
2022-10-02T09:16:09.396Z,4.20
2022-10-02T09:17:01.777Z,3.20
2022-10-02T09:18:11.474Z,2.90
2022-10-02T09:19:09.274Z,3.40
2022-10-02T09:20:09.330Z,3.80
2022-10-02T09:21:11.532Z,4.30
2022-10-02T09:22:09.244Z,3.60
2022-10-02T09:23:11.455Z,3.50
2022-10-02T09:24:01.700Z,3.70
2022-10-02T09:25:01.726Z,3.40
2022-10-02T09:26:01.680Z,3.60
2022-10-02T09:27:01.675Z,3.80
2022-10-02T09:28:01.714Z,4.10
2022-10-02T09:29:01.839Z,3.30
2022-10-02T09:30:01.651Z,3.30
2022-10-02T09:31:01.652Z,3.80
2022-10-02T09:32:01.688Z,3.50
2022-10-02T09:33:01.617Z,3.60
2022-10-02T09:34:01.767Z,3.10
2022-10-02T09:35:01.585Z,3.10
2022-10-02T09:36:01.589Z,2.60
2022-10-02T09:37:01.580Z,2.00
2022-10-02T09:38:01.552Z,1.60
2022-10-02T09:39:01.707Z,1.50
2022-10-02T09:40:01.537Z,1.60
2022-10-02T09:41:01.530Z,1.50
2022-10-02T09:42:01.519Z,1.20
2022-10-02T09:43:01.510Z,1.60
2022-10-02T09:44:01.491Z,1.30
2022-10-02T09:45:02.167Z,1.60
2022-10-02T09:46:01.564Z,1.30
2022-10-02T09:47:01.467Z,1.50
2022-10-02T09:48:01.455Z,1.70
2022-10-02T09:49:01.467Z,1.80
2022-10-02T09:50:01.435Z,1.70
2022-10-02T09:51:01.584Z,1.80
2022-10-02T09:52:01.422Z,1.90
2022-10-02T09:53:01.415Z,1.90
2022-10-02T09:54:01.384Z,1.50
2022-10-02T09:55:01.380Z,1.50
2022-10-02T09:56:01.522Z,1.70
2022-10-02T09:57:01.360Z,1.50
2022-10-02T09:58:01.341Z,1.90
2022-10-02T09:59:01.338Z,1.60
2022-10-02T10:00:01.321Z,1.80
2022-10-02T10:01:01.363Z,1.70
2022-10-02T10:02:01.518Z,1.30
2022-10-02T10:03:01.301Z,1.70
2022-10-02T10:04:01.282Z,1.40
2022-10-02T10:05:06.022Z,1.40
2022-10-02T10:06:02.266Z,1.60
2022-10-02T10:07:01.252Z,1.90
2022-10-02T10:08:01.504Z,2.30
2022-10-02T10:09:01.223Z,1.80
2022-10-02T10:10:01.202Z,2.10
2022-10-02T10:11:01.221Z,1.80
2022-10-02T10:12:01.198Z,2.40
2022-10-02T10:13:01.208Z,2.20
2022-10-02T10:14:01.341Z,2.10
2022-10-02T10:15:01.177Z,2.50
2022-10-02T10:16:01.178Z,2.60
2022-10-02T10:17:01.147Z,2.20
2022-10-02T10:18:01.141Z,2.90
2022-10-02T10:19:01.132Z,2.50
2022-10-02T10:20:01.430Z,2.40
2022-10-02T10:21:01.096Z,2.10
2022-10-02T10:22:01.086Z,2.10
2022-10-02T10:23:01.082Z,2.40
2022-10-02T10:24:01.285Z,2.70
2022-10-02T10:25:01.063Z,2.80
2022-10-02T10:26:01.203Z,2.60
2022-10-02T10:27:01.030Z,2.90
2022-10-02T10:28:01.022Z,3.00
2022-10-02T10:29:01.004Z,3.20
2022-10-02T10:30:01.001Z,3.10
2022-10-02T10:31:01.264Z,3.40
2022-10-02T10:32:01.183Z,2.90
2022-10-02T10:33:00.963Z,2.90
2022-10-02T10:34:00.963Z,2.80
2022-10-02T10:35:00.943Z,3.10
2022-10-02T10:36:00.937Z,3.00
2022-10-02T10:37:00.921Z,3.60
2022-10-02T10:38:01.106Z,3.40
2022-10-02T10:39:00.905Z,3.50
2022-10-02T10:40:00.893Z,3.70
2022-10-02T10:41:01.083Z,3.40
2022-10-02T10:42:00.902Z,3.10
2022-10-02T10:43:07.986Z,3.20
2022-10-02T10:44:01.891Z,3.00
2022-10-02T10:45:00.836Z,3.10
2022-10-02T10:46:00.855Z,2.80
2022-10-02T10:47:00.990Z,3.40
2022-10-02T10:48:00.796Z,2.90
2022-10-02T10:49:00.790Z,2.80
2022-10-02T10:50:00.783Z,3.40
2022-10-02T10:51:00.773Z,3.40
2022-10-02T10:52:00.763Z,3.00
2022-10-02T10:53:00.937Z,2.90
2022-10-02T10:54:02.009Z,3.00
2022-10-02T10:55:00.733Z,3.20
2022-10-02T10:56:00.713Z,2.50
2022-10-02T10:57:00.717Z,2.90
2022-10-02T10:58:00.692Z,2.60
2022-10-02T10:59:00.911Z,2.50
2022-10-02T11:00:00.669Z,2.60
2022-10-02T11:01:00.721Z,2.70
2022-10-02T11:02:00.686Z,2.80
2022-10-02T11:03:00.632Z,3.00
2022-10-02T11:04:00.643Z,2.50
2022-10-02T11:05:01.005Z,2.80
2022-10-02T11:06:00.607Z,2.40
2022-10-02T11:07:00.608Z,2.30
2022-10-02T11:08:00.591Z,2.70
2022-10-02T11:09:00.579Z,2.40
2022-10-02T11:10:00.726Z,2.40
2022-10-02T11:11:00.563Z,2.70
2022-10-02T11:12:00.543Z,2.10
2022-10-02T11:13:00.540Z,2.00
2022-10-02T11:14:00.517Z,2.00
2022-10-02T11:15:00.522Z,2.10
2022-10-02T11:16:00.692Z,2.20
2022-10-02T11:17:00.488Z,2.00
2022-10-02T11:18:00.480Z,2.10
2022-10-02T11:19:00.473Z,2.00
2022-10-02T11:20:00.452Z,1.90
2022-10-02T11:21:00.453Z,2.00
2022-10-02T11:22:07.627Z,1.80
2022-10-02T11:23:00.427Z,1.80
2022-10-02T11:24:00.401Z,1.80
2022-10-02T11:25:00.426Z,1.80
2022-10-02T11:26:00.397Z,1.80
2022-10-02T11:27:00.399Z,1.60
2022-10-02T11:28:00.562Z,1.90
2022-10-02T11:29:00.358Z,1.60
2022-10-02T11:30:00.346Z,1.70
2022-10-02T11:31:00.349Z,1.80
2022-10-02T11:32:00.336Z,2.10
2022-10-02T11:33:00.315Z,1.60
2022-10-02T11:34:00.554Z,1.60
2022-10-02T11:35:00.298Z,1.70
2022-10-02T11:36:00.275Z,2.10
2022-10-02T11:37:00.268Z,2.10
2022-10-02T11:38:03.838Z,1.80
2022-10-02T11:39:00.251Z,1.90
2022-10-02T11:40:00.430Z,1.90
2022-10-02T11:41:00.220Z,1.90
2022-10-02T11:42:00.212Z,1.70
2022-10-02T11:43:00.205Z,2.00
2022-10-02T11:44:00.195Z,1.90
2022-10-02T11:45:00.185Z,2.00
2022-10-02T11:46:00.415Z,1.70
2022-10-02T11:47:00.158Z,1.60
2022-10-02T11:48:00.171Z,1.90
2022-10-02T11:49:00.144Z,1.60
2022-10-02T11:50:00.161Z,2.00
2022-10-02T11:51:00.276Z,1.70
2022-10-02T11:52:00.119Z,2.00
2022-10-02T11:53:00.101Z,1.80
2022-10-02T11:54:00.308Z,2.10
2022-10-02T11:55:00.119Z,2.00
2022-10-02T11:56:00.070Z,1.70
2022-10-02T11:57:00.230Z,1.70
2022-10-02T11:58:00.040Z,1.50
2022-10-02T11:59:00.037Z,1.90
2022-10-02T12:00:00.036Z,1.60
2022-10-02T12:01:00.007Z,1.70
2022-10-02T12:02:00.218Z,2.00
2022-10-02T12:03:00.245Z,1.50
2022-10-02T12:03:59.967Z,1.70
2022-10-02T12:04:59.969Z,1.90
2022-10-02T12:05:59.975Z,1.80
2022-10-02T12:06:59.955Z,1.90
2022-10-02T12:08:00.135Z,1.60
2022-10-02T12:08:59.927Z,1.60
2022-10-02T12:09:59.926Z,1.50
2022-10-02T12:10:59.909Z,1.90
2022-10-02T12:11:59.905Z,1.70
2022-10-02T12:12:59.879Z,1.80
2022-10-02T12:14:00.034Z,1.90
2022-10-02T12:14:59.877Z,1.90
2022-10-02T12:15:59.886Z,1.70
2022-10-02T12:16:59.855Z,1.90
2022-10-02T12:17:59.828Z,1.70
2022-10-02T12:19:00.170Z,1.70
2022-10-02T12:19:59.805Z,1.80
2022-10-02T12:20:59.788Z,1.60
2022-10-02T12:21:59.780Z,1.60
2022-10-02T12:22:59.771Z,1.70
2022-10-02T12:23:59.857Z,1.60
2022-10-02T12:24:59.936Z,1.50
2022-10-02T12:25:59.794Z,1.50
2022-10-02T12:26:59.740Z,1.60
2022-10-02T12:27:59.766Z,1.50
2022-10-02T12:28:59.707Z,1.70
2022-10-02T12:29:59.690Z,1.50
2022-10-02T12:30:59.838Z,1.80
2022-10-02T12:31:59.707Z,1.40
2022-10-02T12:32:59.656Z,1.20
2022-10-02T12:33:59.666Z,1.70
2022-10-02T12:34:59.638Z,1.70
2022-10-02T12:35:59.791Z,1.60
2022-10-02T12:36:59.619Z,1.20
2022-10-02T12:37:59.605Z,1.40
2022-10-02T12:38:59.594Z,1.60
2022-10-02T12:39:59.588Z,1.30
2022-10-02T12:40:59.726Z,1.60
2022-10-02T12:41:59.566Z,1.40
2022-10-02T12:42:59.546Z,1.30
2022-10-02T12:43:59.548Z,1.50
2022-10-02T12:44:59.527Z,1.30
2022-10-02T12:45:59.724Z,1.60
2022-10-02T12:46:59.507Z,1.40
2022-10-02T12:47:59.499Z,1.70
2022-10-02T12:48:59.477Z,1.80
2022-10-02T12:49:59.515Z,1.70
2022-10-02T12:51:04.697Z,1.70
2022-10-02T12:52:00.704Z,1.70
2022-10-02T12:52:59.449Z,1.90
2022-10-02T12:53:59.437Z,1.60
2022-10-02T12:54:59.431Z,1.50
2022-10-02T12:55:59.418Z,2.00
2022-10-02T12:56:59.416Z,2.10
2022-10-02T12:57:59.559Z,1.80
2022-10-02T12:58:59.378Z,1.70
2022-10-02T12:59:59.380Z,1.70
2022-10-02T13:00:59.382Z,1.70
2022-10-02T13:01:59.412Z,1.90
2022-10-02T13:03:01.793Z,1.90
2022-10-02T13:03:59.563Z,1.80
2022-10-02T13:04:59.319Z,1.50
2022-10-02T13:05:59.320Z,1.70
2022-10-02T13:06:59.322Z,1.70
2022-10-02T13:07:59.287Z,1.70
2022-10-02T13:08:59.280Z,1.70
2022-10-02T13:09:59.424Z,1.50
2022-10-02T13:10:59.247Z,1.90
2022-10-02T13:11:59.239Z,1.90
2022-10-02T13:12:59.223Z,1.60
2022-10-02T13:13:59.217Z,1.40
2022-10-02T13:14:59.221Z,1.40
2022-10-02T13:15:59.381Z,1.40
2022-10-02T13:16:59.218Z,1.50
2022-10-02T13:17:59.188Z,1.70